Time;durP1;ratioP1;P1;durP2;ratioP2;P2;SDS_P1;SDS_P2;PMS_P1;PMS_P2;Temp;Humidity;BMP_temperature;BMP_pressure;BME280_temperature;BME280_humidity;BME280_pressure;Samples;Min_cycle;Max_cycle;Signal;HPM_P1;HPM_P2
2021/12/20 00:02:25;;;;;;;25.67;5.43;;;;;;;;;;6162884;23;20369;-74
2021/12/20 00:04:53;;;;;;;29.30;5.15;;;;;;;;;;6138372;23;20822;-74
2021/12/20 00:07:19;;;;;;;23.35;4.50;;;;;;;;;;6138825;23;20369;-75
2021/12/20 00:09:46;;;;;;;23.75;5.10;;;;;;;;;;6139057;23;20380;-75
2021/12/20 00:12:12;;;;;;;23.30;5.05;;;;;;;;;;6163212;23;20433;-75
2021/12/20 00:14:38;;;;;;;24.50;5.10;;;;;;;;;;6162127;23;20871;-75
2021/12/20 00:17:04;;;;;;;21.05;4.38;;;;;;;;;;6163428;23;20377;-75
2021/12/20 00:19:31;;;;;;;28.35;5.15;;;;;;;;;;6138294;23;20369;-75
2021/12/20 00:21:57;;;;;;;28.25;4.97;;;;;;;;;;6163224;23;20366;-75
2021/12/20 00:24:23;;;;;;;25.17;4.88;;;;;;;;;;6161473;23;20469;-75
2021/12/20 00:26:49;;;;;;;23.08;4.63;;;;;;;;;;6139625;23;20369;-74
2021/12/20 00:29:15;;;;;;;27.00;5.18;;;;;;;;;;6186745;23;20394;-75
2021/12/20 00:31:41;;;;;;;24.98;4.63;;;;;;;;;;6163675;23;20374;-75
2021/12/20 00:34:07;;;;;;;26.67;4.53;;;;;;;;;;6162575;23;20405;-75
2021/12/20 00:36:34;;;;;;;23.92;5.15;;;;;;;;;;6162098;23;20376;-75
2021/12/20 00:41:45;;;;;;;24.50;4.95;;;;;;;;;;6187335;23;20377;-75
2021/12/20 00:44:11;;;;;;;24.48;5.07;;;;;;;;;;6138923;23;20397;-75
2021/12/20 00:46:37;;;;;;;22.63;4.70;;;;;;;;;;6138370;23;20424;-75
2021/12/20 00:49:03;;;;;;;20.98;3.60;;;;;;;;;;6162433;23;20436;-75
2021/12/20 00:51:29;;;;;;;21.65;4.60;;;;;;;;;;6188035;23;20397;-75
2021/12/20 00:53:55;;;;;;;25.73;5.38;;;;;;;;;;6136210;23;20373;-75
2021/12/20 00:56:21;;;;;;;18.88;3.70;;;;;;;;;;6163286;23;20398;-75
2021/12/20 00:58:47;;;;;;;19.67;3.88;;;;;;;;;;6162135;23;20456;-75
2021/12/20 01:01:13;;;;;;;19.10;4.25;;;;;;;;;;6162782;23;20376;-75
2021/12/20 01:03:40;;;;;;;18.25;4.10;;;;;;;;;;6138196;23;20460;-75
2021/12/20 01:06:06;;;;;;;17.20;3.95;;;;;;;;;;6187473;23;20397;-75
2021/12/20 01:08:36;;;;;;;22.42;4.30;;;;;;;;;;6187102;23;20373;-75
2021/12/20 01:11:02;;;;;;;22.13;3.85;;;;;;;;;;6186669;23;20384;-75
2021/12/20 01:13:30;;;;;;;21.00;4.35;;;;;;;;;;6163369;23;20420;-75
2021/12/20 01:15:58;;;;;;;19.90;4.30;;;6.70;99.90;;;;;;6186194;23;20814;-75
2021/12/20 01:18:24;;;;;;;20.88;3.78;;;;;;;;;;6138612;23;20456;-75
2021/12/20 01:20:51;;;;;;;20.10;3.87;;;;;;;;;;6185567;23;20373;-75
2021/12/20 01:23:17;;;;;;;16.50;3.58;;;;;;;;;;6184541;23;20377;-75
2021/12/20 01:25:44;;;;;;;17.40;3.60;;;;;;;;;;6138659;23;20401;-74
2021/12/20 01:28:10;;;;;;;18.17;3.72;;;;;;;;;;6191547;23;20408;-74
2021/12/20 01:30:38;;;;;;;23.75;3.90;;;;;;;;;;6168168;23;20447;-75
2021/12/20 01:33:07;;;;;;;20.13;3.72;;;;;;;;;;6141338;23;20395;-75
2021/12/20 01:35:37;;;;;;;24.77;3.83;;;;;;;;;;6142668;23;20374;-74
2021/12/20 01:38:04;;;;;;;17.10;3.45;;;6.90;99.90;;;;;;6143465;23;20375;-75
2021/12/20 01:40:31;;;;;;;20.08;3.60;;;;;;;;;;6191802;23;20454;-75
2021/12/20 01:42:58;;;;;;;17.25;3.72;;;;;;;;;;6168476;23;20363;-75
2021/12/20 01:45:25;;;;;;;16.27;3.53;;;;;;;;;;6141425;23;20391;-75
2021/12/20 01:48:01;;;;;;;15.07;3.47;;;;;;;;;;6144441;23;20367;-74
2021/12/20 01:53:12;;;;;;;17.63;3.22;;;;;;;;;;6192415;23;20380;-75
2021/12/20 01:55:39;;;;;;;13.23;3.20;;;;;;;;;;6169651;23;20379;-74
2021/12/20 01:58:05;;;;;;;15.52;3.17;;;;;;;;;;6169049;23;20403;-74
2021/12/20 02:00:31;;;;;;;16.23;3.20;;;;;;;;;;6170381;23;20439;-75
2021/12/20 02:02:59;;;;;;;15.18;3.05;;;7.20;99.90;;;;;;6166920;23;20459;-74
2021/12/20 02:05:45;;;;;;;20.80;3.55;;;;;;;;;;6170128;23;20466;-74
2021/12/20 02:08:29;;;;;;;18.80;3.10;;;;;;;;;;6193971;23;20398;-74
2021/12/20 02:10:58;;;;;;;17.30;3.25;;;6.80;99.90;;;;;;6192729;23;20380;-75
2021/12/20 02:13:28;;;;;;;16.63;3.33;;;;;;;;;;6168902;23;20383;-74
2021/12/20 02:15:54;;;;;;;19.33;3.30;;;;;;;;;;6193602;23;20364;-75
2021/12/20 02:18:20;;;;;;;17.75;3.40;;;;;;;;;;6170338;23;20371;-75
2021/12/20 02:20:46;;;;;;;20.80;3.55;;;;;;;;;;6193745;23;20376;-75
2021/12/20 02:23:12;;;;;;;17.15;3.60;;;;;;;;;;6143037;23;20378;-74
2021/12/20 02:25:39;;;;;;;17.77;3.65;;;;;;;;;;6169346;23;20869;-74
2021/12/20 02:28:10;;;;;;;16.40;3.50;;;;;;;;;;6143722;23;20731;-75
2021/12/20 02:30:48;;;;;;;14.07;2.80;;;;;;;;;;6169788;23;20378;-75
2021/12/20 02:38:45;;;;;;;16.65;2.83;;;;;;;;;;6193000;23;20451;-74
2021/12/20 02:41:16;;;;;;;16.25;3.63;;;;;;;;;;6193850;23;20372;-75
2021/12/20 02:43:43;;;;;;;18.35;3.40;;;;;;;;;;6169178;23;20815;-75
2021/12/20 02:46:46;;;;;;;18.95;3.00;;;;;;;;;;6168785;23;20399;-75
2021/12/20 02:49:22;;;;;;;16.02;3.47;;;;;;;;;;6193127;23;20372;-75
2021/12/20 02:51:51;;;;;;;19.05;3.83;;;6.70;99.90;;;;;;6194703;23;20390;-75
2021/12/20 02:54:18;;;;;;;17.60;3.57;;;;;;;;;;6192119;23;20372;-75
2021/12/20 02:56:45;;;;;;;17.73;3.40;;;;;;;;;;6169502;23;20432;-75
2021/12/20 02:59:11;;;;;;;14.57;3.40;;;;;;;;;;6193517;23;21038;-75
2021/12/20 03:01:39;;;;;;;17.40;3.25;;;;;;;;;;6193419;23;20376;-74
2021/12/20 03:04:06;;;;;;;15.98;3.13;;;;;;;;;;6167455;23;20550;-75
2021/12/20 03:06:37;;;;;;;18.42;3.10;;;;;;;;;;6168120;23;20463;-75
2021/12/20 03:09:06;;;;;;;14.13;2.90;;;;;;;;;;6194833;23;20372;-75
2021/12/20 03:11:32;;;;;;;17.80;3.30;;;;;;;;;;6168022;23;20451;-75
2021/12/20 03:14:11;;;;;;;19.13;3.47;;;;;;;;;;6169186;23;20713;-74
2021/12/20 03:16:37;;;;;;;15.80;2.92;;;;;;;;;;6193190;23;20443;-75
2021/12/20 03:19:04;;;;;;;19.20;3.40;;;;;;;;;;6142044;23;20372;-75
2021/12/20 03:21:30;;;;;;;16.23;3.20;;;;;;;;;;6169242;23;20364;-75
2021/12/20 03:23:56;;;;;;;19.05;2.95;;;;;;;;;;6192527;23;20396;-75
2021/12/20 03:26:23;;;;;;;19.60;3.50;;;;;;;;;;6169262;23;20375;-74
2021/12/20 03:28:51;;;;;;;18.50;3.35;;;;;;;;;;6191631;23;20450;-75
2021/12/20 03:31:17;;;;;;;15.98;2.72;;;;;;;;;;6169374;23;20379;-75
2021/12/20 03:33:43;;;;;;;14.70;3.07;;;;;;;;;;6168374;23;20383;-75
2021/12/20 03:36:09;;;;;;;15.68;3.38;;;;;;;;;;6168401;23;20404;-75
2021/12/20 03:38:36;;;;;;;17.55;3.60;;;;;;;;;;6193132;23;20432;-74
2021/12/20 03:41:02;;;;;;;16.05;3.30;;;;;;;;;;6167529;23;20368;-74
2021/12/20 03:43:31;;;;;;;15.95;3.22;;;;;;;;;;6194449;23;20451;-75
2021/12/20 03:46:01;;;;;;;11.38;3.00;;;;;;;;;;6167645;23;20754;-75
2021/12/20 03:48:28;;;;;;;15.23;3.30;;;;;;;;;;6168384;23;20382;-75
2021/12/20 03:51:01;;;;;;;11.35;3.20;;;;;;;;;;6143244;23;20371;-74
2021/12/20 03:53:27;;;;;;;16.53;3.10;;;;;;;;;;6192743;23;20422;-75
2021/12/20 03:55:53;;;;;;;14.90;2.95;;;;;;;;;;6192753;23;20382;-75
2021/12/20 03:58:19;;;;;;;12.65;2.88;;;;;;;;;;6167704;23;20463;-75
2021/12/20 04:00:46;;;;;;;14.48;2.88;;;;;;;;;;6168862;23;20382;-74
2021/12/20 04:03:14;;;;;;;12.98;2.90;;;;;;;;;;6166595;23;20399;-74
2021/12/20 04:05:40;;;;;;;15.88;2.55;;;;;;;;;;6169034;23;20486;-75
2021/12/20 04:08:07;;;;;;;15.57;2.83;;;;;;;;;;6166766;23;20427;-75
2021/12/20 04:10:33;;;;;;;15.32;2.95;;;;;;;;;;6192931;23;20372;-75
2021/12/20 04:12:59;;;;;;;15.70;2.97;;;;;;;;;;6168759;23;20363;-75
2021/12/20 04:15:25;;;;;;;15.13;2.80;;;;;;;;;;6143172;23;20368;-75
2021/12/20 04:17:51;;;;;;;11.32;2.67;;;;;;;;;;6143652;23;20455;-74
2021/12/20 04:20:17;;;;;;;14.57;2.85;;;;;;;;;;6142730;23;20379;-75
2021/12/20 04:22:43;;;;;;;14.80;2.80;;;;;;;;;;6193111;23;20435;-75
2021/12/20 04:25:10;;;;;;;12.48;2.75;;;;;;;;;;6143311;23;20395;-75
2021/12/20 04:27:36;;;;;;;17.48;2.95;;;;;;;;;;6168280;23;20367;-75
2021/12/20 04:30:10;;;;;;;13.27;2.50;;;;;;;;;;6167346;23;20895;-75
2021/12/20 04:32:37;;;;;;;11.02;2.55;;;;;;;;;;6167535;23;20372;-75
2021/12/20 04:35:03;;;;;;;11.95;2.80;;;;;;;;;;6168872;23;20371;-75
2021/12/20 04:37:29;;;;;;;13.00;2.78;;;;;;;;;;6167152;23;20375;-75
2021/12/20 04:39:56;;;;;;;11.88;3.00;;;;;;;;;;6168032;23;20367;-75
2021/12/20 04:42:22;;;;;;;16.38;3.15;;;;;;;;;;6167739;23;20364;-75
2021/12/20 04:44:48;;;;;;;14.97;2.63;;;;;;;;;;6191621;23;20392;-75
2021/12/20 04:47:15;;;;;;;12.43;2.63;;;;;;;;;;6144559;23;20786;-75
2021/12/20 04:49:41;;;;;;;12.93;2.60;;;;;;;;;;6165219;23;20470;-74
2021/12/20 04:52:07;;;;;;;17.30;3.47;;;;;;;;;;6143737;23;20371;-75
2021/12/20 04:54:33;;;;;;;14.60;2.85;;;;;;;;;;6142567;23;20378;-75
2021/12/20 04:56:59;;;;;;;17.70;2.97;;;;;;;;;;6144063;23;20399;-75
2021/12/20 04:59:25;;;;;;;13.02;2.85;;;;;;;;;;6168724;23;20399;-74
2021/12/20 05:01:51;;;;;;;12.88;2.83;;;;;;;;;;6166775;23;20372;-75
2021/12/20 05:04:17;;;;;;;12.18;2.58;;;;;;;;;;6168628;23;20399;-75
2021/12/20 05:06:43;;;;;;;12.38;2.47;;;;;;;;;;6142022;23;20374;-75
2021/12/20 05:09:09;;;;;;;10.77;2.50;;;;;;;;;;6168273;23;20510;-75
2021/12/20 05:11:36;;;;;;;12.05;2.80;;;;;;;;;;6191811;23;20368;-75
2021/12/20 05:14:02;;;;;;;11.93;2.45;;;;;;;;;;6167043;23;20398;-75
2021/12/20 05:16:29;;;;;;;10.48;2.55;;;;;;;;;;6167391;23;20375;-74
2021/12/20 05:18:55;;;;;;;10.75;2.40;;;;;;;;;;6166671;23;20431;-75
2021/12/20 05:21:21;;;;;;;9.80;2.80;;;;;;;;;;6168022;23;20426;-75
2021/12/20 05:23:47;;;;;;;17.88;3.10;;;;;;;;;;6191192;23;20625;-75
2021/12/20 05:26:13;;;;;;;12.32;2.75;;;;;;;;;;6192883;23;20392;-75
2021/12/20 05:28:39;;;;;;;17.33;3.30;;;;;;;;;;6166650;23;20390;-75
2021/12/20 05:31:05;;;;;;;16.83;3.17;;;;;;;;;;6142312;23;20372;-75
2021/12/20 05:33:33;;;;;;;15.25;2.75;;;;;;;;;;6192155;23;20435;-75
2021/12/20 05:35:59;;;;;;;18.55;3.33;;;;;;;;;;6166899;23;20368;-75
2021/12/20 05:38:25;;;;;;;13.18;3.03;;;;;;;;;;6167691;23;20694;-75
2021/12/20 05:40:52;;;;;;;15.07;2.60;;;;;;;;;;6141569;23;20364;-75
2021/12/20 05:43:18;;;;;;;11.50;2.83;;;;;;;;;;6168168;23;20521;-75
2021/12/20 05:45:44;;;;;;;11.32;2.53;;;;;;;;;;6142781;23;20398;-75
2021/12/20 05:48:10;;;;;;;19.48;3.38;;;;;;;;;;6142918;23;20368;-75
2021/12/20 05:50:36;;;;;;;12.07;2.70;;;;;;;;;;6167634;23;20873;-75
2021/12/20 05:53:02;;;;;;;15.95;2.75;;;;;;;;;;6166585;23;20375;-75
2021/12/20 05:55:28;;;;;;;13.57;2.70;;;;;;;;;;6167366;23;20364;-75
2021/12/20 05:57:54;;;;;;;13.73;2.80;;;;;;;;;;6166656;23;20411;-75
2021/12/20 06:00:21;;;;;;;14.23;3.05;;;;;;;;;;6142319;23;20371;-75
2021/12/20 06:02:49;;;;;;;13.15;2.78;;;;;;;;;;6167006;23;20474;-75
2021/12/20 06:05:16;;;;;;;16.90;3.77;;;;;;;;;;6167890;23;20427;-76
2021/12/20 06:07:43;;;;;;;11.60;2.65;;;;;;;;;;6167264;23;20410;-75
2021/12/20 06:10:10;;;;;;;13.43;2.90;;;;;;;;;;6143042;23;20449;-76
2021/12/20 06:12:37;;;;;;;10.45;2.45;;;;;;;;;;6167724;23;20400;-75
2021/12/20 06:15:03;;;;;;;12.90;2.67;;;;;;;;;;6142162;23;20394;-76
2021/12/20 06:17:30;;;;;;;11.33;2.77;;;;;;;;;;6167650;23;20375;-76
2021/12/20 06:19:56;;;;;;;16.40;3.22;;;;;;;;;;6166305;23;20371;-75
2021/12/20 06:22:22;;;;;;;14.73;2.80;;;;;;;;;;6167457;23;20372;-75
2021/12/20 06:24:48;;;;;;;14.48;2.90;;;;;;;;;;6166054;23;20407;-75
2021/12/20 06:27:14;;;;;;;11.18;3.03;;;;;;;;;;6191860;23;20363;-75
2021/12/20 06:29:40;;;;;;;16.67;3.73;;;;;;;;;;6167619;23;20376;-75
2021/12/20 06:32:06;;;;;;;18.10;5.13;;;;;;;;;;6190817;23;20398;-75
2021/12/20 06:34:32;;;;;;;18.65;3.90;;;;;;;;;;6144375;23;20853;-74
2021/12/20 06:36:59;;;;;;;15.52;4.57;;;;;;;;;;6193675;23;20367;-75
2021/12/20 06:39:25;;;;;;;15.32;4.03;;;;;;;;;;6169494;23;20372;-76
2021/12/20 06:41:51;;;;;;;14.25;4.50;;;;;;;;;;6167917;23;20368;-75
2021/12/20 06:44:18;;;;;;;17.83;4.03;;;;;;;;;;6168868;23;20414;-76
2021/12/20 06:46:45;;;;;;;23.73;7.53;;;;;;;;;;6143861;23;20395;-75
2021/12/20 06:49:11;;;;;;;18.25;6.55;;;;;;;;;;6167309;23;20789;-75
2021/12/20 06:51:40;;;;;;;16.25;5.40;;;;;;;;;;6169664;23;20368;-75
2021/12/20 06:54:07;;;;;;;13.37;4.30;;;;;;;;;;6167393;23;20372;-75
2021/12/20 06:56:33;;;;;;;17.08;4.43;;;;;;;;;;6168929;23;20408;-75
2021/12/20 06:58:59;;;;;;;16.35;4.97;;;;;;;;;;6167944;23;20431;-75
2021/12/20 07:01:26;;;;;;;15.57;4.97;;;;;;;;;;6168636;23;21138;-76
2021/12/20 07:03:52;;;;;;;16.75;5.60;;;;;;;;;;6141129;23;20395;-75
2021/12/20 07:06:18;;;;;;;15.13;5.07;;;;;;;;;;6191263;23;20782;-75
2021/12/20 07:08:44;;;;;;;18.73;4.70;;;;;;;;;;6136813;23;20461;-75
2021/12/20 07:11:10;;;;;;;15.47;5.27;;;;;;;;;;6162370;23;20858;-75
2021/12/20 07:13:38;;;;;;;16.17;4.78;;;;;;;;;;6163838;23;20403;-76
2021/12/20 07:16:04;;;;;;;18.15;5.43;;;;;;;;;;6186808;23;20394;-77
2021/12/20 07:18:30;;;;;;;18.33;5.70;;;;;;;;;;6166679;23;20402;-77
2021/12/20 07:20:56;;;;;;;15.55;5.20;;;;;;;;;;6168138;23;20407;-76
2021/12/20 07:23:23;;;;;;;15.95;5.40;;;;;;;;;;6194729;23;20406;-77
2021/12/20 07:25:49;;;;;;;19.80;5.95;;;;;;;;;;6136815;23;20482;-78
2021/12/20 07:28:15;;;;;;;17.20;6.05;;;;;;;;;;6132319;23;20375;-78
2021/12/20 07:30:44;;;;;;;20.60;5.20;;;;;;;;;;6159952;23;20571;-77
2021/12/20 07:33:10;;;;;;;18.38;6.13;;;;;;;;;;6184288;23;20371;-78
2021/12/20 07:35:37;;;;;;;14.70;6.22;;;;;;;;;;6159255;23;20382;-77
2021/12/20 07:38:04;;;;;;;15.40;5.70;;;;;;;;;;6159846;23;20831;-78
2021/12/20 07:40:30;;;;;;;15.27;5.32;;;;;;;;;;6183464;23;20383;-78
2021/12/20 07:42:56;;;;;;;13.10;4.28;;;;;;;;;;6160848;23;20506;-77
2021/12/20 07:45:23;;;;;;;16.77;4.57;;;;;;;;;;6157942;23;20395;-78
2021/12/20 07:47:50;;;;;;;17.52;4.78;;;;;;;;;;6134209;23;20382;-77
2021/12/20 07:50:17;;;;;;;15.90;4.30;;;;;;;;;;6159400;23;20376;-77
2021/12/20 07:52:43;;;;;;;16.30;4.95;;;;;;;;;;6135193;23;20386;-78
2021/12/20 07:55:09;;;;;;;17.90;4.85;;;;;;;;;;6183047;23;20394;-77
2021/12/20 07:57:37;;;;;;;24.05;5.03;;;;;;;;;;6159201;23;20371;-77
2021/12/20 08:00:04;;;;;;;22.20;5.32;;;;;;;;;;6184695;23;20444;-77
2021/12/20 08:02:30;;;;;;;18.70;4.88;;;;;;;;;;6184656;23;20450;-77
2021/12/20 08:04:56;;;;;;;20.08;4.90;;;;;;;;;;6166514;23;20392;-77
2021/12/20 08:07:22;;;;;;;18.90;5.97;;;;;;;;;;6167720;23;20392;-77
2021/12/20 08:09:50;;;;;;;17.33;5.97;;;;;;;;;;6167430;23;20401;-76
2021/12/20 08:12:16;;;;;;;20.83;7.18;;;;;;;;;;6168458;23;20367;-77
2021/12/20 08:14:42;;;;;;;18.38;6.90;;;;;;;;;;6167936;23;20431;-77
2021/12/20 08:17:08;;;;;;;16.25;7.55;;;;;;;;;;6142438;23;20367;-77
2021/12/20 08:19:34;;;;;;;22.83;7.90;;;;;;;;;;6167866;23;20511;-77
2021/12/20 08:22:00;;;;;;;19.77;7.93;;;;;;;;;;6168624;23;20551;-77
2021/12/20 08:24:26;;;;;;;22.52;7.57;;;;;;;;;;6141068;23;20668;-77
2021/12/20 08:26:53;;;;;;;17.50;7.30;;;;;;;;;;6193424;23;20372;-76
2021/12/20 08:29:19;;;;;;;25.25;9.00;;;;;;;;;;6143314;23;20944;-76
2021/12/20 08:31:45;;;;;;;25.67;7.70;;;;;;;;;;6192774;23;20382;-77
2021/12/20 08:34:11;;;;;;;22.67;7.40;;;;;;;;;;6168605;23;20364;-76
2021/12/20 08:36:37;;;;;;;17.75;6.13;;;;;;;;;;6143053;23;20398;-77
2021/12/20 08:39:03;;;;;;;20.83;7.30;;;;;;;;;;6167681;23;20367;-76
2021/12/20 08:41:30;;;;;;;21.20;9.40;;;;;;;;;;6192153;23;20375;-76
2021/12/20 08:43:56;;;;;;;24.13;8.90;;;;;;;;;;6193326;23;20849;-77
2021/12/20 08:46:22;;;;;;;19.80;8.32;;;;;;;;;;6192051;23;20406;-76
2021/12/20 08:48:48;;;;;;;20.63;7.25;;;;;;;;;;6191281;23;20379;-81
2021/12/20 08:51:14;;;;;;;29.48;11.68;;;;;;;;;;6141012;23;20856;-77
2021/12/20 08:53:41;;;;;;;25.23;11.48;;;;;;;;;;6191575;23;20751;-77
2021/12/20 08:56:08;;;;;;;28.98;15.52;;;;;;;;;;6192952;23;20426;-77
2021/12/20 08:58:34;;;;;;;32.05;13.70;;;;;;;;;;6166606;23;20517;-76
2021/12/20 09:01:00;;;;;;;36.65;20.42;;;;;;;;;;6192395;23;20462;-76
2021/12/20 09:03:28;;;;;;;19.65;7.53;;;;;;;;;;6192205;23;20792;-77
2021/12/20 09:05:54;;;;;;;20.98;6.03;;;;;;;;;;6141833;23;20395;-77
2021/12/20 09:08:21;;;;;;;18.35;5.85;;;;;;;;;;6167841;23;20431;-77
2021/12/20 09:10:50;;;;;;;20.17;6.95;;;;;;;;;;6167677;23;20878;-77
2021/12/20 09:13:17;;;;;;;17.00;6.35;;;;;;;;;;6166644;23;20371;-76
2021/12/20 09:15:43;;;;;;;19.95;7.05;;;;;;;;;;6141860;23;20387;-76
2021/12/20 09:18:10;;;;;;;17.63;6.40;;;;;;;;;;6192720;23;20402;-76
2021/12/20 09:20:37;;;;;;;24.25;8.60;;;;;;;;;;6191212;23;20379;-76
2021/12/20 09:23:05;;;;;;;24.80;7.28;;;;;;;;;;6143059;23;20376;-76
2021/12/20 09:25:32;;;;;;;20.13;7.50;;;;;;;;;;6191745;23;20426;-76
2021/12/20 09:27:59;;;;;;;22.52;6.53;;;;;;;;;;6191837;23;20458;-77
2021/12/20 09:30:26;;;;;;;21.20;7.25;;;;;;;;;;6167120;23;20379;-76
2021/12/20 09:32:52;;;;;;;26.42;6.47;;;;;;;;;;6167062;23;20367;-76
2021/12/20 09:35:19;;;;;;;26.73;5.47;;;;;;;;;;6168282;23;20456;-77
2021/12/20 09:37:49;;;;;;;21.88;5.13;;;;;;;;;;6191509;23;20367;-77
2021/12/20 09:40:16;;;;;;;19.90;5.18;;;;;;;;;;6191541;23;20367;-76
2021/12/20 09:42:50;;;;;;;26.80;5.10;;;;;;;;;;6194777;23;20371;-77
2021/12/20 09:45:20;;;;;;;22.85;5.53;;;;;;;;;;6192868;23;20440;-77
2021/12/20 09:47:46;;;;;;;28.85;6.35;;;;;;;;;;6194131;23;20388;-77
2021/12/20 09:50:13;;;;;;;30.20;7.95;;;;;;;;;;6169883;23;20402;-77
2021/12/20 09:52:43;;;;;;;30.48;9.43;;;;;;;;;;6168683;23;20370;-77
2021/12/20 09:55:10;;;;;;;27.27;7.07;;;;;;;;;;6166448;23;20457;-77
2021/12/20 09:57:37;;;;;;;35.25;8.23;;;;;;;;;;6191950;23;20376;-76
2021/12/20 10:00:07;;;;;;;33.90;9.40;;;;;;;;;;6168512;23;20364;-78
2021/12/20 10:02:33;;;;;;;32.92;7.78;;;;;;;;;;6191050;23;20363;-78
2021/12/20 10:04:59;;;;;;;29.38;7.75;;;;;;;;;;6193548;23;20462;-78
2021/12/20 10:07:27;;;;;;;34.20;8.02;;;;;;;;;;6171114;23;20393;-79
2021/12/20 10:09:54;;;;;;;35.60;8.18;;;;;;;;;;6199176;23;20391;-78
2021/12/20 10:12:21;;;;;;;33.10;7.47;;;;;;;;;;6200325;23;20367;-78
2021/12/20 10:15:07;;;;;;;34.63;7.45;;;;;;;;;;6193025;23;20410;-78
2021/12/20 10:17:55;;;;;;;37.08;7.03;;;;;;;;;;6174620;23;20375;-79
2021/12/20 10:20:26;;;;;;;33.63;7.75;;;;;;;;;;6199298;23;20368;-79
2021/12/20 10:22:52;;;;;;;32.33;10.00;;;;;;;;;;6174181;23;20410;-79
2021/12/20 10:25:25;;;;;;;33.10;8.43;;;;;;;;;;6195369;23;20474;-79
2021/12/20 10:27:51;;;;;;;36.70;7.13;;;;;;;;;;6192421;23;20390;-79
2021/12/20 10:30:28;;;;;;;34.25;6.65;;;;;;;;;;6193206;23;20390;-79
2021/12/20 10:32:55;;;;;;;33.03;6.67;;;;;;;;;;6192633;23;20425;-78
2021/12/20 10:35:27;;;;;;;27.23;6.53;;;;;;;;;;6193333;23;20841;-79
2021/12/20 10:37:54;;;;;;;33.58;6.97;;;;;;;;;;6166201;23;20379;-74
2021/12/20 10:40:20;;;;;;;35.50;8.00;;;;;;;;;;6192436;23;20434;-77
2021/12/20 10:42:48;;;;;;;30.77;6.25;;;;;;;;;;6168588;23;20375;-76
2021/12/20 10:45:17;;;;;;;27.92;6.78;;;;;;;;;;6192249;23;20403;-77
2021/12/20 10:47:44;;;;;;;33.97;6.80;;;;;;;;;;6168992;23;20455;-75
2021/12/20 10:50:25;;;;;;;29.67;6.32;;;;;;;;;;6142862;23;20391;-77
2021/12/20 10:52:52;;;;;;;36.13;6.85;;;;;;;;;;6193116;23;20406;-82
2021/12/20 10:55:37;;;;;;;33.50;7.63;;;;;;;;;;6168764;23;20379;-75
2021/12/20 10:58:17;;;;;;;29.00;6.60;;;;;;;;;;6190880;23;20379;-76
2021/12/20 11:00:44;;;;;;;31.60;6.75;;;;;;;;;;6193248;23;20466;-75
2021/12/20 11:03:27;;;;;;;29.58;6.45;;;;;;;;;;6168123;23;20443;-75
2021/12/20 11:11:25;;;;;;;24.02;6.03;;;;;;;;;;6191678;23;20376;-75
2021/12/20 11:13:51;;;;;;;28.65;6.32;;;;;;;;;;6193444;23;20364;-75
2021/12/20 11:16:27;;;;;;;27.30;5.82;;;;;;;;;;6191541;23;20443;-75
2021/12/20 11:19:12;;;;;;;27.65;6.30;;;;;;;;;;6168457;23;20844;-76
2021/12/20 11:21:48;;;;;;;24.05;5.45;;;;;;;;;;6168402;23;20384;-77
2021/12/20 11:24:16;;;;;;;26.65;6.43;;;;;;;;;;6166615;23;20379;-76
2021/12/20 11:26:42;;;;;;;32.33;6.78;;;;;;;;;;6167659;23;20492;-76
2021/12/20 11:29:09;;;;;;;28.45;6.32;;;;;;;;;;6168157;23;20390;-77
2021/12/20 11:31:37;;;;;;;27.67;6.43;;;;;;;;;;6144229;23;20468;-77
2021/12/20 11:34:04;;;;;;;23.48;5.50;;;;;;;;;;6193894;23;20376;-76
2021/12/20 11:36:30;;;;;;;27.77;5.82;;;;;;;;;;6141736;23;20371;-77
2021/12/20 11:38:59;;;;;;;29.10;6.10;;;;;;;;;;6168249;23;20391;-77
2021/12/20 11:41:28;;;;;;;26.73;5.35;;;;;;;;;;6168059;23;20368;-78
2021/12/20 11:43:55;;;;;;;31.25;5.70;;;;;;;;;;6144087;23;20443;-78
2021/12/20 11:46:23;;;;;;;24.83;5.40;;;;;;;;;;6166843;23;20455;-78
2021/12/20 11:48:50;;;;;;;21.33;4.82;;;;;;;;;;6192685;23;20398;-78
2021/12/20 11:51:17;;;;;;;21.48;4.65;;;;;;;;;;6168124;23;20376;-77
2021/12/20 11:53:43;;;;;;;23.03;5.30;;;;;;;;;;6165886;23;20367;-79
2021/12/20 11:56:09;;;;;;;23.48;5.40;;;;;;;;;;6193085;23;20769;-79
2021/12/20 11:58:37;;;;;;;19.58;4.88;;;;;;;;;;6166836;23;20382;-79
2021/12/20 12:01:15;;;;;;;23.65;4.82;;;;;;;;;;6168728;23;20410;-79
2021/12/20 12:03:51;;;;;;;24.48;5.68;;;;;;;;;;6193011;23;20402;-78
2021/12/20 12:06:23;;;;;;;19.08;4.22;;;;;;;;;;6165745;23;20404;-79
2021/12/20 12:08:52;;;;;;;21.33;4.40;;;;;;;;;;6167311;23;20393;-78
2021/12/20 12:11:19;;;;;;;24.17;4.77;;;;;;;;;;6164471;23;20459;-79
2021/12/20 12:16:26;;;;;;;20.83;4.87;;;;;;;;;;6191942;23;20383;-78
2021/12/20 12:18:53;;;;;;;19.27;5.03;;;;;;;;;;6168157;23;20372;-79
2021/12/20 12:21:39;;;;;;;20.75;5.18;;;;;;;;;;6169048;23;20375;-77
2021/12/20 12:24:06;;;;;;;23.83;5.15;;;;;;;;;;6192543;23;20375;-79
2021/12/20 12:26:37;;;;;;;20.15;4.70;;;;;;;;;;6171668;23;20395;-79
2021/12/20 12:29:04;;;;;;;21.73;4.07;;;;;;;;;;6167627;23;20451;-79
2021/12/20 12:31:52;;;;;;;26.03;5.77;;;;;;;;;;6165859;23;20463;-79
2021/12/20 12:34:19;;;;;;;20.20;5.50;;;;;;;;;;6168577;23;20383;-79
2021/12/20 12:36:46;;;;;;;19.42;4.80;;;;;;;;;;6186264;23;20383;-79
2021/12/20 12:39:21;;;;;;;21.70;4.75;;;;;;;;;;6166354;23;20387;-79
2021/12/20 12:41:48;;;;;;;20.63;4.40;;;;;;;;;;6167091;23;20409;-79
2021/12/20 12:44:17;;;;;;;18.60;4.60;;;;;;;;;;6192808;23;20372;-79
2021/12/20 12:46:46;;;;;;;17.05;4.38;;;;;;;;;;6167630;23;20422;-78
2021/12/20 12:49:21;;;;;;;12.98;3.15;;;;;;;;;;6167069;23;20406;-79
2021/12/20 12:51:48;;;;;;;10.60;2.88;;;;;;;;;;6168004;23;20815;-79
2021/12/20 12:54:33;;;;;;;15.05;3.05;;;;;;;;;;6167056;23;20372;-79
2021/12/20 12:57:08;;;;;;;10.15;2.65;;;;;;;;;;6168325;23;20388;-82
2021/12/20 12:59:34;;;;;;;10.00;2.78;;;;;;;;;;6191729;23;20473;-79
2021/12/20 13:02:08;;;;;;;10.38;2.30;;;;;;;;;;6167182;23;20379;-78
2021/12/20 13:04:50;;;;;;;8.23;2.37;;;;;;;;;;6166889;23;20395;-78
2021/12/20 13:07:20;;;;;;;7.97;2.70;;;;;;;;;;6167486;23;20388;-76
2021/12/20 13:09:47;;;;;;;7.13;1.60;;;;;;;;;;6167085;23;20371;-77
2021/12/20 13:12:19;;;;;;;5.85;1.40;;;;;;;;;;6190754;23;20402;-79
2021/12/20 13:14:54;;;;;;;7.00;1.40;;;;;;;;;;6166669;23;20376;-78
2021/12/20 13:17:30;;;;;;;4.67;1.50;;;;;;;;;;6168693;23;20406;-78
2021/12/20 13:20:11;;;;;;;4.82;1.40;;;;;;;;;;6166533;23;20380;-77
2021/12/20 13:22:37;;;;;;;6.55;1.55;;;;;;;;;;6190897;23;20462;-78
2021/12/20 13:25:04;;;;;;;5.80;2.20;;;;;;;;;;6192003;23;20391;-79
2021/12/20 13:27:31;;;;;;;5.97;1.30;;;;;;;;;;6142697;23;20394;-79
2021/12/20 13:29:57;;;;;;;5.03;1.60;;;;;;;;;;6192745;23;20388;-79
2021/12/20 13:32:23;;;;;;;5.72;1.60;;;;;;;;;;6165578;23;20371;-79
2021/12/20 13:34:50;;;;;;;7.47;1.63;;;;;;;;;;6168687;23;20422;-79
2021/12/20 13:37:16;;;;;;;8.20;1.70;;;;;;;;;;6166490;23;20439;-80
2021/12/20 13:39:53;;;;;;;4.95;1.75;;;7.10;99.90;;;;;;6192039;23;20690;-79
2021/12/20 13:42:19;;;;;;;5.00;1.70;;;;;;;;;;6192222;23;20383;-79
2021/12/20 13:44:45;;;;;;;4.50;1.67;;;;;;;;;;6141720;23;20801;-80
2021/12/20 13:47:16;;;;;;;7.97;2.43;;;;;;;;;;6167383;23;20379;-79
2021/12/20 13:49:43;;;;;;;6.22;2.03;;;;;;;;;;6189268;23;20375;-80
2021/12/20 13:52:10;;;;;;;7.07;1.70;;;;;;;;;;6192852;23;20392;-79
2021/12/20 13:54:39;;;;;;;6.05;1.88;;;;;;;;;;6166747;23;20375;-79
2021/12/20 13:57:11;;;;;;;4.50;1.60;;;;;;;;;;6193020;23;20372;-80
2021/12/20 13:59:44;;;;;;;7.95;2.30;;;;;;;;;;6166497;23;20390;-80
2021/12/20 14:02:12;;;;;;;7.65;2.15;;;;;;;;;;6166520;23;20386;-80
2021/12/20 14:04:40;;;;;;;7.43;2.45;;;;;;;;;;6167424;23;20494;-80
2021/12/20 14:07:25;;;;;;;6.22;1.90;;;;;;;;;;6166093;23;20374;-79
2021/12/20 14:10:08;;;;;;;6.10;3.05;;;;;;;;;;6190362;23;20378;-80
2021/12/20 14:12:48;;;;;;;5.13;2.05;;;;;;;;;;6167414;23;20822;-80
2021/12/20 14:15:18;;;;;;;6.90;3.78;;;;;;;;;;6191705;23;20450;-80
2021/12/20 14:17:52;;;;;;;4.35;1.80;;;;;;;;;;6167490;23;20379;-80
2021/12/20 14:20:18;;;;;;;5.20;2.20;;;;;;;;;;6167234;23;20376;-79
2021/12/20 14:22:55;;;;;;;6.63;2.30;;;;;;;;;;6165369;23;20438;-78
2021/12/20 14:25:28;;;;;;;6.95;2.65;;;;;;;;;;6168016;23;20399;-80
2021/12/20 14:28:15;;;;;;;5.32;2.03;;;;;;;;;;6166691;23;20470;-80
2021/12/20 14:30:46;;;;;;;7.03;2.35;;;;;;;;;;6161373;23;20730;-79
2021/12/20 14:33:19;;;;;;;6.85;2.95;;;;;;;;;;6186762;23;20377;-78
2021/12/20 14:35:56;;;;;;;7.28;3.42;;;;;;;;;;6164344;23;20380;-78
2021/12/20 14:38:26;;;;;;;8.38;3.58;;;;;;;;;;6191912;23;20375;-79
2021/12/20 14:40:53;;;;;;;8.60;3.72;;;;;;;;;;6167098;23;20371;-78
2021/12/20 14:43:20;;;;;;;11.15;2.97;;;;;;;;;;6192237;23;20374;-79
2021/12/20 14:45:50;;;;;;;11.02;3.30;;;;;;;;;;6167056;23;20454;-79
2021/12/20 14:48:23;;;;;;;7.22;2.78;;;;;;;;;;6192582;23;20367;-79
2021/12/20 14:50:50;;;;;;;9.18;2.80;;;;;;;;;;6190609;23;20376;-79
2021/12/20 14:53:17;;;;;;;7.05;3.13;;;;;;;;;;6166711;23;20368;-78
2021/12/20 14:55:43;;;;;;;7.60;2.97;;;;;;;;;;6167940;23;20372;-80